createdAt,value
2018-04-01T00:00:34.623Z,8.10
2018-04-01T00:03:01.889Z,8.00
2018-04-01T00:05:28.937Z,8.00
2018-04-01T00:07:55.916Z,8.00
2018-04-01T00:10:22.893Z,8.10
2018-04-01T00:12:50.182Z,8.10
2018-04-01T00:15:17.937Z,8.10
2018-04-01T00:17:45.095Z,8.10
2018-04-01T00:20:12.328Z,8.10
2018-04-01T00:22:39.401Z,8.10
2018-04-01T00:25:06.376Z,8.00
2018-04-01T00:27:33.356Z,8.00
2018-04-01T00:30:00.341Z,8.00
2018-04-01T00:32:27.385Z,8.00
2018-04-01T00:34:54.441Z,8.00
2018-04-01T00:37:21.684Z,8.00
2018-04-01T00:39:48.651Z,8.00
2018-04-01T00:42:16.400Z,7.90
2018-04-01T00:44:43.392Z,7.80
2018-04-01T00:47:10.563Z,7.60
2018-04-01T00:49:37.747Z,7.70
2018-04-01T00:52:04.964Z,7.80
2018-04-01T00:54:32.044Z,7.70
2018-04-01T00:56:59.206Z,7.80
2018-04-01T00:59:26.171Z,7.80
2018-04-01T01:01:53.191Z,7.80
2018-04-01T01:04:20.167Z,7.80
2018-04-01T01:06:47.140Z,7.90
2018-04-01T01:09:14.123Z,7.80
2018-04-01T01:11:41.103Z,7.80
2018-04-01T01:14:08.091Z,7.90
2018-04-01T01:16:35.212Z,7.90
2018-04-01T01:19:02.328Z,7.90
2018-04-01T01:21:29.305Z,7.90
2018-04-01T01:23:56.279Z,7.90
2018-04-01T01:26:23.264Z,7.90
2018-04-01T01:28:50.267Z,7.80
2018-04-01T01:31:17.252Z,7.80
2018-04-01T01:33:44.304Z,7.70
2018-04-01T01:36:12.797Z,7.80
2018-04-01T01:38:40.760Z,7.80
2018-04-01T01:41:07.912Z,7.70
2018-04-01T01:43:34.892Z,7.80
2018-04-01T01:46:01.868Z,7.80
2018-04-01T01:48:28.851Z,7.80
2018-04-01T01:50:56.050Z,7.80
2018-04-01T01:53:23.047Z,7.80
2018-04-01T01:55:50.038Z,7.70
2018-04-01T01:58:17.042Z,7.70
2018-04-01T02:00:44.024Z,7.70
2018-04-01T02:03:11.033Z,7.70
2018-04-01T02:05:38.012Z,7.70
2018-04-01T02:08:05.002Z,7.70
2018-04-01T02:10:32.003Z,7.70
2018-04-01T02:12:58.989Z,7.70
2018-04-01T02:15:26.175Z,7.70
2018-04-01T02:17:53.165Z,7.70
2018-04-01T02:20:20.480Z,7.70
2018-04-01T02:22:47.448Z,7.80
2018-04-01T02:25:14.466Z,7.80
2018-04-01T02:27:41.616Z,7.80
2018-04-01T02:30:08.593Z,7.70
2018-04-01T02:32:36.341Z,7.80
2018-04-01T02:35:03.309Z,7.80
2018-04-01T02:37:30.346Z,7.60
2018-04-01T02:39:58.293Z,7.70
2018-04-01T02:42:25.453Z,7.70
2018-04-01T02:44:52.443Z,7.70
2018-04-01T02:47:19.444Z,7.60
2018-04-01T02:49:46.412Z,7.70
2018-04-01T02:52:14.160Z,7.70
2018-04-01T02:54:41.900Z,7.60
2018-04-01T02:57:08.965Z,7.60
2018-04-01T02:59:37.436Z,7.40
2018-04-01T03:02:04.500Z,7.40
2018-04-01T03:04:31.484Z,7.40
2018-04-01T03:06:58.455Z,7.40
2018-04-01T03:09:25.430Z,7.40
2018-04-01T03:11:52.507Z,7.40
2018-04-01T03:14:19.635Z,7.40
2018-04-01T03:16:48.112Z,7.30
2018-04-01T03:19:15.164Z,7.30
2018-04-01T03:21:42.138Z,7.30
2018-04-01T03:24:09.880Z,7.40
2018-04-01T03:26:37.617Z,7.30
2018-04-01T03:29:04.686Z,7.40
2018-04-01T03:31:31.659Z,7.30
2018-04-01T03:33:59.399Z,7.00
2018-04-01T03:36:26.376Z,7.00
2018-04-01T03:38:53.356Z,7.10
2018-04-01T03:41:20.332Z,7.00
2018-04-01T03:43:47.299Z,7.00
2018-04-01T03:46:14.432Z,6.90
2018-04-01T03:48:41.408Z,7.00
2018-04-01T03:51:09.156Z,6.90
2018-04-01T03:53:36.891Z,6.80
2018-04-01T03:56:03.967Z,6.80
2018-04-01T03:58:30.941Z,6.80
2018-04-01T04:00:58.769Z,6.60
2018-04-01T04:03:25.744Z,6.70
2018-04-01T04:05:52.719Z,6.60
2018-04-01T04:08:19.711Z,6.60
2018-04-01T04:10:46.672Z,6.60
2018-04-01T04:13:14.408Z,6.60
2018-04-01T04:15:41.468Z,6.50
2018-04-01T04:18:08.620Z,6.50
2018-04-01T04:20:37.304Z,6.60
2018-04-01T04:23:04.456Z,6.60
2018-04-01T04:25:31.440Z,6.60
2018-04-01T04:27:58.413Z,6.70
2018-04-01T04:30:25.393Z,6.70
2018-04-01T04:32:52.517Z,6.80
2018-04-01T04:35:19.488Z,6.80
2018-04-01T04:37:46.755Z,6.80
2018-04-01T04:40:13.738Z,6.90
2018-04-01T04:42:40.721Z,6.90
2018-04-01T04:45:07.696Z,6.90
2018-04-01T04:47:34.745Z,6.90
2018-04-01T04:50:01.717Z,7.00
2018-04-01T04:52:28.774Z,6.90
2018-04-01T04:54:55.739Z,6.90
2018-04-01T04:57:22.729Z,6.90
2018-04-01T04:59:49.714Z,6.80
2018-04-01T05:02:16.674Z,6.80
2018-04-01T05:04:43.864Z,6.80
2018-04-01T05:07:10.836Z,6.80
2018-04-01T05:09:38.591Z,6.80
2018-04-01T05:12:05.575Z,6.80
2018-04-01T05:14:32.777Z,6.80
2018-04-01T05:16:59.933Z,6.90
2018-04-01T05:19:27.233Z,6.80
2018-04-01T05:21:54.213Z,6.90
2018-04-01T05:24:21.195Z,6.90
2018-04-01T05:26:48.956Z,7.00
2018-04-01T05:29:16.722Z,6.90
2018-04-01T05:31:44.679Z,6.90
2018-04-01T05:34:11.670Z,6.90
2018-04-01T05:36:38.670Z,6.90
2018-04-01T05:39:05.651Z,6.80
2018-04-01T05:41:32.627Z,6.80
2018-04-01T05:43:59.625Z,6.90
2018-04-01T05:46:27.384Z,6.80
2018-04-01T05:48:55.125Z,6.80
2018-04-01T05:51:22.136Z,6.80
2018-04-01T05:53:49.111Z,6.80
2018-04-01T05:56:16.133Z,6.90
2018-04-01T05:58:43.116Z,6.80
2018-04-01T06:01:10.093Z,6.90
2018-04-01T06:03:37.092Z,6.90
2018-04-01T06:06:04.282Z,6.90
2018-04-01T06:08:31.267Z,6.80
2018-04-01T06:10:58.244Z,6.90
2018-04-01T06:13:25.234Z,6.90
2018-04-01T06:15:52.240Z,6.90
2018-04-01T06:18:19.270Z,6.90
2018-04-01T06:20:46.477Z,6.80
2018-04-01T06:23:13.444Z,6.90
2018-04-01T06:25:40.448Z,6.90
2018-04-01T06:28:07.445Z,6.90
2018-04-01T06:30:34.538Z,6.80
2018-04-01T06:33:01.504Z,6.80
2018-04-01T06:35:28.504Z,6.80
2018-04-01T06:37:55.500Z,6.80
2018-04-01T06:40:23.232Z,6.90
2018-04-01T06:42:50.355Z,6.90
2018-04-01T06:45:17.360Z,6.90
2018-04-01T06:47:44.335Z,6.90
2018-04-01T06:50:11.328Z,6.90
2018-04-01T06:52:38.403Z,6.90
2018-04-01T06:55:05.419Z,6.90
2018-04-01T06:57:32.411Z,6.90
2018-04-01T06:59:59.634Z,6.90
2018-04-01T07:02:26.783Z,6.90
2018-04-01T07:04:53.937Z,6.90
2018-04-01T07:07:20.999Z,6.80
2018-04-01T07:09:48.240Z,6.70
2018-04-01T07:12:15.485Z,6.70
2018-04-01T07:14:42.797Z,6.70
2018-04-01T07:17:09.764Z,6.60
2018-04-01T07:19:36.747Z,6.60
2018-04-01T07:22:03.780Z,6.60
2018-04-01T07:24:30.841Z,6.60
2018-04-01T07:26:57.812Z,6.60
2018-04-01T07:29:25.557Z,6.50
2018-04-01T07:31:52.519Z,6.50
2018-04-01T07:34:19.746Z,6.50
2018-04-01T07:36:46.715Z,6.50
2018-04-01T07:39:14.660Z,6.50
2018-04-01T07:41:41.640Z,6.50
2018-04-01T07:44:09.377Z,6.40
2018-04-01T07:46:36.357Z,6.50
2018-04-01T07:49:03.321Z,6.30
2018-04-01T07:51:30.411Z,6.50
2018-04-01T07:53:57.568Z,6.40
2018-04-01T07:56:24.711Z,6.40
2018-04-01T07:58:51.688Z,6.30
2018-04-01T08:01:19.522Z,6.20
2018-04-01T08:03:46.496Z,6.20
2018-04-01T08:06:13.475Z,6.10
2018-04-01T08:08:40.452Z,6.00
2018-04-01T08:11:07.619Z,5.90
2018-04-01T08:13:34.594Z,5.80
2018-04-01T08:16:02.352Z,5.90
2018-04-01T08:18:30.096Z,6.00
2018-04-01T08:20:57.088Z,5.80
2018-04-01T08:23:24.131Z,5.90
2018-04-01T08:25:51.052Z,5.90
2018-04-01T08:28:18.311Z,5.80
2018-04-01T08:30:45.290Z,5.80
2018-04-01T08:33:12.272Z,5.80
2018-04-01T08:35:39.257Z,5.80
2018-04-01T08:38:07.018Z,5.80
2018-04-01T08:40:34.772Z,5.80
2018-04-01T08:43:02.539Z,5.80
2018-04-01T08:45:30.293Z,5.70
2018-04-01T08:47:57.284Z,5.80
2018-04-01T08:50:24.263Z,5.80
2018-04-01T08:52:51.281Z,5.60
2018-04-01T08:55:18.261Z,5.60
2018-04-01T08:57:45.327Z,5.50
2018-04-01T09:00:12.327Z,5.50
2018-04-01T09:02:39.308Z,5.50
2018-04-01T09:05:06.500Z,5.50
2018-04-01T09:07:33.492Z,5.50
2018-04-01T09:10:00.477Z,5.60
2018-04-01T09:12:27.670Z,5.70
2018-04-01T09:14:54.644Z,5.70
2018-04-01T09:17:21.619Z,5.80
2018-04-01T09:19:48.592Z,5.80
2018-04-01T09:22:15.577Z,5.80
2018-04-01T09:24:42.767Z,5.80
2018-04-01T09:27:09.908Z,5.80
2018-04-01T09:29:37.036Z,5.80
2018-04-01T09:32:04.023Z,5.90
2018-04-01T09:34:31.764Z,6.10
2018-04-01T09:36:58.800Z,6.10
2018-04-01T09:39:26.027Z,6.10
2018-04-01T09:41:53.291Z,6.20
2018-04-01T09:44:20.270Z,6.20
2018-04-01T09:46:47.418Z,6.30
2018-04-01T09:49:14.423Z,6.30
2018-04-01T09:51:41.480Z,6.30
2018-04-01T09:54:08.476Z,6.30
2018-04-01T09:56:35.708Z,6.10
2018-04-01T09:59:02.869Z,6.20
2018-04-01T10:01:30.356Z,6.30
2018-04-01T10:03:57.840Z,6.30
2018-04-01T10:06:25.317Z,6.30
2018-04-01T10:08:52.796Z,6.40
2018-04-01T10:11:20.491Z,6.60
2018-04-01T10:13:47.953Z,6.80
2018-04-01T10:16:15.527Z,6.90
2018-04-01T10:18:43.148Z,7.10
2018-04-01T10:21:10.872Z,7.30
2018-04-01T10:23:38.330Z,7.50
2018-04-01T10:26:05.860Z,7.70
2018-04-01T10:28:33.328Z,7.80
2018-04-01T10:31:00.792Z,7.70
2018-04-01T10:33:28.268Z,7.50
2018-04-01T10:35:55.746Z,7.40
2018-04-01T10:38:23.220Z,7.50
2018-04-01T10:40:50.903Z,7.40
2018-04-01T10:43:18.385Z,7.40
2018-04-01T10:45:46.092Z,7.30
2018-04-01T10:48:13.571Z,7.30
2018-04-01T10:50:41.158Z,7.30
2018-04-01T10:53:08.631Z,7.40
2018-04-01T10:55:35.620Z,7.50
2018-04-01T10:58:02.621Z,8.30
2018-04-01T11:00:29.603Z,10.50
2018-04-01T11:02:56.591Z,13.00
2018-04-01T11:05:23.635Z,14.10
2018-04-01T11:07:50.633Z,14.70
2018-04-01T11:10:17.633Z,14.60
2018-04-01T11:12:44.704Z,14.20
2018-04-01T11:15:11.711Z,13.60
2018-04-01T11:17:39.452Z,12.50
2018-04-01T11:20:06.428Z,12.50
2018-04-01T11:22:33.430Z,12.00
2018-04-01T11:25:00.403Z,11.60
2018-04-01T11:27:27.515Z,10.90
2018-04-01T11:29:54.523Z,10.60
2018-04-01T11:32:21.655Z,10.30
2018-04-01T11:34:48.804Z,9.90
2018-04-01T11:37:15.823Z,9.70
2018-04-01T11:39:42.800Z,9.50
2018-04-01T11:42:09.945Z,9.10
2018-04-01T11:44:36.924Z,9.00
2018-04-01T11:47:03.897Z,8.80
2018-04-01T11:49:30.930Z,8.60
2018-04-01T11:51:57.935Z,8.50
2018-04-01T11:54:25.088Z,8.40
2018-04-01T11:56:52.125Z,8.30
2018-04-01T11:59:19.059Z,8.30
2018-04-01T12:01:46.104Z,8.20
2018-04-01T12:04:13.104Z,8.30
2018-04-01T12:06:40.108Z,8.20
2018-04-01T12:09:07.149Z,8.20
2018-04-01T12:11:34.132Z,8.30
2018-04-01T12:14:01.383Z,8.20
2018-04-01T12:16:28.369Z,8.30
2018-04-01T12:18:55.356Z,8.20
2018-04-01T12:21:24.059Z,8.00
2018-04-01T12:23:51.066Z,8.00
2018-04-01T12:26:18.040Z,8.00
2018-04-01T12:28:45.033Z,7.90
2018-04-01T12:31:12.009Z,7.90
2018-04-01T12:33:39.178Z,7.90
2018-04-01T12:36:06.164Z,8.00
2018-04-01T12:38:33.135Z,8.10
2018-04-01T12:41:00.335Z,8.20
2018-04-01T12:43:27.312Z,8.40
2018-04-01T12:45:54.326Z,8.40
2018-04-01T12:48:21.476Z,8.40
2018-04-01T12:50:48.457Z,8.30
2018-04-01T12:53:15.442Z,8.20
2018-04-01T12:55:42.579Z,8.20
2018-04-01T12:58:09.600Z,8.20
2018-04-01T13:00:36.582Z,8.10
2018-04-01T13:03:03.728Z,8.20
2018-04-01T13:05:30.737Z,8.20
2018-04-01T13:07:58.472Z,8.60
2018-04-01T13:10:25.625Z,8.50
2018-04-01T13:12:52.675Z,8.90
2018-04-01T13:15:19.980Z,9.20
2018-04-01T13:17:46.955Z,9.50
2018-04-01T13:20:13.948Z,9.40
2018-04-01T13:22:41.700Z,9.40
2018-04-01T13:25:09.453Z,9.30
2018-04-01T13:27:36.453Z,9.30
2018-04-01T13:30:03.659Z,9.20
2018-04-01T13:32:30.650Z,9.30
2018-04-01T13:34:57.957Z,9.00
2018-04-01T13:37:24.972Z,8.80
2018-04-01T13:39:51.960Z,8.80
2018-04-01T13:42:19.126Z,8.70
2018-04-01T13:44:46.323Z,8.60
2018-04-01T13:47:14.645Z,8.60
2018-04-01T13:49:41.803Z,8.50
2018-04-01T13:52:08.798Z,8.40
2018-04-01T13:54:35.802Z,8.40
2018-04-01T13:57:03.028Z,8.40
2018-04-01T13:59:30.159Z,8.40
2018-04-01T14:01:57.155Z,8.40
2018-04-01T14:04:24.152Z,8.40
2018-04-01T14:06:51.133Z,8.50
2018-04-01T14:09:18.232Z,8.50
2018-04-01T14:11:45.327Z,8.50
2018-04-01T14:14:13.080Z,8.40
2018-04-01T14:16:40.061Z,8.40
2018-04-01T14:19:07.058Z,8.40
2018-04-01T14:21:34.049Z,8.60
2018-04-01T14:24:01.039Z,8.70
2018-04-01T14:26:28.017Z,8.70
2018-04-01T14:28:55.276Z,8.80
2018-04-01T14:31:22.272Z,8.80
2018-04-01T14:33:49.570Z,8.80
2018-04-01T14:36:16.569Z,8.80
2018-04-01T14:38:43.561Z,9.10
2018-04-01T14:41:10.546Z,9.30
2018-04-01T14:43:37.567Z,9.60
2018-04-01T14:46:04.561Z,9.90
2018-04-01T14:48:31.566Z,10.00
2018-04-01T14:50:58.544Z,10.20
2018-04-01T14:53:25.548Z,10.40
2018-04-01T14:55:52.542Z,10.80
2018-04-01T14:58:19.505Z,11.60
2018-04-01T15:00:46.489Z,12.30
2018-04-01T15:03:13.532Z,13.30
2018-04-01T15:05:40.577Z,13.40
2018-04-01T15:08:07.544Z,12.80
2018-04-01T15:10:34.517Z,12.70
2018-04-01T15:13:01.514Z,12.50
2018-04-01T15:15:28.678Z,11.80
2018-04-01T15:17:55.651Z,11.20
2018-04-01T15:20:24.057Z,10.20
2018-04-01T15:22:51.052Z,10.20
2018-04-01T15:25:18.200Z,10.10
2018-04-01T15:27:45.212Z,9.90
2018-04-01T15:30:12.661Z,9.70
2018-04-01T15:32:39.621Z,9.50
2018-04-01T15:35:07.628Z,9.50
2018-04-01T15:37:34.601Z,9.50
2018-04-01T15:40:01.716Z,9.30
2018-04-01T15:42:28.721Z,9.30
2018-04-01T15:44:55.724Z,9.10
2018-04-01T15:47:22.787Z,9.00
2018-04-01T15:49:49.779Z,9.00
2018-04-01T15:52:16.899Z,9.00
2018-04-01T15:54:43.840Z,9.00
2018-04-01T15:57:10.828Z,9.00
2018-04-01T15:59:37.803Z,9.00
2018-04-01T16:02:05.003Z,9.10
2018-04-01T16:04:31.998Z,9.10
2018-04-01T16:06:58.981Z,9.00
2018-04-01T16:09:25.955Z,9.00
2018-04-01T16:11:53.176Z,9.00
2018-04-01T16:14:20.308Z,8.70
2018-04-01T16:16:47.449Z,8.70
2018-04-01T16:19:14.434Z,8.80
2018-04-01T16:21:41.437Z,8.80
2018-04-01T16:24:08.592Z,8.70
2018-04-01T16:26:35.577Z,8.70
2018-04-01T16:29:02.582Z,8.60
2018-04-01T16:31:29.722Z,8.60
2018-04-01T16:33:56.888Z,8.40
2018-04-01T16:36:24.036Z,8.30
2018-04-01T16:38:51.040Z,8.30
2018-04-01T16:41:18.018Z,8.40
2018-04-01T16:43:45.162Z,8.40
2018-04-01T16:46:12.216Z,8.20
2018-04-01T16:48:39.217Z,8.10
2018-04-01T16:51:06.331Z,8.10
2018-04-01T16:53:34.812Z,8.00
2018-04-01T16:56:01.797Z,8.10
2018-04-01T16:58:28.790Z,8.10
2018-04-01T17:00:55.848Z,8.10
2018-04-01T17:03:22.826Z,8.10
2018-04-01T17:05:49.824Z,8.10
2018-04-01T17:08:17.000Z,8.00
2018-04-01T17:10:44.071Z,8.10
2018-04-01T17:13:11.064Z,8.10
2018-04-01T17:15:38.036Z,8.10
2018-04-01T17:18:05.296Z,8.00
2018-04-01T17:20:32.444Z,7.90
2018-04-01T17:22:59.596Z,7.80
2018-04-01T17:25:26.564Z,7.70
2018-04-01T17:27:54.304Z,7.50
2018-04-01T17:30:21.279Z,7.50
2018-04-01T17:32:48.264Z,7.60
2018-04-01T17:35:15.377Z,7.50
2018-04-01T17:37:42.496Z,7.50
2018-04-01T17:40:09.478Z,7.50
2018-04-01T17:42:36.575Z,7.50
2018-04-01T17:45:03.642Z,7.50
2018-04-01T17:47:30.772Z,7.50
2018-04-01T17:49:57.756Z,7.50
2018-04-01T17:52:25.708Z,7.50
2018-04-01T17:54:52.692Z,7.50
2018-04-01T17:57:19.673Z,7.50
2018-04-01T17:59:46.660Z,7.60
2018-04-01T18:02:14.628Z,7.50
2018-04-01T18:04:41.803Z,7.50
2018-04-01T18:07:08.809Z,7.50
2018-04-01T18:09:35.784Z,7.50
2018-04-01T18:12:03.844Z,7.50
2018-04-01T18:14:30.887Z,7.50
2018-04-01T18:16:57.895Z,7.50
2018-04-01T18:19:24.882Z,7.50
2018-04-01T18:21:51.866Z,7.50
2018-04-01T18:24:18.837Z,7.40
2018-04-01T18:26:45.817Z,7.50
2018-04-01T18:29:12.808Z,7.50
2018-04-01T18:31:39.786Z,7.50
2018-04-01T18:34:06.765Z,7.50
2018-04-01T18:36:33.806Z,7.50
2018-04-01T18:39:00.786Z,7.50
2018-04-01T18:41:27.805Z,7.50
2018-04-01T18:43:54.791Z,7.50
2018-04-01T18:46:21.764Z,7.40
2018-04-01T18:48:48.748Z,7.50
2018-04-01T18:51:15.716Z,7.40
2018-04-01T18:53:42.697Z,7.50
2018-04-01T18:56:09.672Z,7.40
2018-04-01T18:58:36.684Z,7.40
2018-04-01T19:01:03.787Z,7.30
2018-04-01T19:03:30.738Z,7.30
2018-04-01T19:05:57.781Z,7.30
2018-04-01T19:08:24.758Z,7.30
2018-04-01T19:10:52.488Z,7.40
2018-04-01T19:13:19.536Z,7.30
2018-04-01T19:15:46.708Z,7.30
2018-04-01T19:18:14.369Z,7.40
2018-04-01T19:20:41.905Z,7.30
2018-04-01T19:23:09.376Z,7.30
2018-04-01T19:25:37.287Z,7.30
2018-04-01T19:28:04.813Z,7.30
2018-04-01T19:30:32.272Z,7.30
2018-04-01T19:32:59.813Z,7.20
2018-04-01T19:35:27.271Z,7.20
2018-04-01T19:37:54.966Z,7.10
2018-04-01T19:40:22.529Z,7.20
2018-04-01T19:42:50.260Z,7.10
2018-04-01T19:45:18.031Z,7.10
2018-04-01T19:47:45.496Z,7.10
2018-04-01T19:50:13.254Z,7.10
2018-04-01T19:52:40.711Z,7.00
2018-04-01T19:55:08.235Z,7.10
2018-04-01T19:57:35.652Z,7.00
2018-04-01T20:00:03.338Z,7.00
2018-04-01T20:02:30.800Z,7.00
2018-04-01T20:04:58.276Z,6.90
2018-04-01T20:07:25.735Z,6.90
2018-04-01T20:09:53.215Z,6.90
2018-04-01T20:12:20.980Z,6.90
2018-04-01T20:14:48.468Z,6.90
2018-04-01T20:17:15.942Z,6.90
2018-04-01T20:19:43.724Z,6.90
2018-04-01T20:22:11.373Z,6.90
2018-04-01T20:24:38.832Z,6.80
2018-04-01T20:27:06.348Z,6.80
2018-04-01T20:29:33.825Z,6.90
2018-04-01T20:32:01.291Z,6.80
2018-04-01T20:34:28.744Z,6.90
2018-04-01T20:36:56.444Z,6.80
2018-04-01T20:39:23.896Z,6.80
2018-04-01T20:41:51.410Z,6.80
2018-04-01T20:44:19.168Z,6.80
2018-04-01T20:46:46.661Z,6.80
2018-04-01T20:49:14.393Z,6.70
2018-04-01T20:51:42.069Z,6.80
2018-04-01T20:54:09.562Z,6.70
2018-04-01T20:56:37.022Z,6.70
2018-04-01T20:59:04.472Z,6.80
2018-04-01T21:01:31.946Z,6.70
2018-04-01T21:03:59.427Z,6.70
2018-04-01T21:06:26.907Z,6.70
2018-04-01T21:08:54.618Z,6.70
2018-04-01T21:11:22.082Z,6.70
2018-04-01T21:13:49.540Z,6.60
2018-04-01T21:16:17.031Z,6.70
2018-04-01T21:18:44.712Z,6.60
2018-04-01T21:21:12.272Z,6.70
2018-04-01T21:23:39.727Z,6.60
2018-04-01T21:26:07.224Z,6.50
2018-04-01T21:28:34.682Z,6.50
2018-04-01T21:31:02.317Z,6.50
2018-04-01T21:33:30.556Z,6.40
2018-04-01T21:35:58.084Z,6.30
2018-04-01T21:38:25.540Z,6.40
2018-04-01T21:40:53.126Z,6.40
2018-04-01T21:43:20.592Z,6.30
2018-04-01T21:45:48.051Z,6.20
2018-04-01T21:48:15.535Z,6.20
2018-04-01T21:50:42.997Z,6.30
2018-04-01T21:53:10.467Z,6.20
2018-04-01T21:55:38.128Z,6.30
2018-04-01T21:58:05.587Z,6.30
2018-04-01T22:00:33.064Z,6.20
2018-04-01T22:03:00.588Z,6.30
2018-04-01T22:05:28.349Z,6.20
2018-04-01T22:07:55.815Z,6.20
2018-04-01T22:10:23.277Z,6.20
2018-04-01T22:12:50.739Z,6.30
2018-04-01T22:15:18.295Z,6.20
2018-04-01T22:17:45.780Z,6.30
2018-04-01T22:20:13.315Z,6.30
2018-04-01T22:22:52.395Z,6.20
2018-04-01T22:25:19.912Z,6.20
2018-04-01T22:27:48.145Z,6.20
2018-04-01T22:30:15.611Z,6.20
2018-04-01T22:32:43.240Z,6.20
2018-04-01T22:35:10.704Z,6.30
2018-04-01T22:37:38.188Z,6.20
2018-04-01T22:40:05.669Z,6.20
2018-04-01T22:42:33.425Z,6.20
2018-04-01T22:45:00.884Z,6.20
2018-04-01T22:47:28.344Z,6.10
2018-04-01T22:49:55.840Z,6.20
2018-04-01T22:52:23.563Z,6.20
2018-04-01T22:54:51.041Z,6.20
2018-04-01T22:57:18.707Z,6.20
2018-04-01T22:59:46.169Z,6.10
2018-04-01T23:02:13.704Z,6.20
2018-04-01T23:04:41.498Z,6.10
2018-04-01T23:07:09.173Z,6.10
2018-04-01T23:09:36.636Z,6.10
2018-04-01T23:12:04.126Z,6.00
2018-04-01T23:14:31.636Z,6.00
2018-04-01T23:16:59.097Z,6.00
2018-04-01T23:19:26.831Z,5.90
2018-04-01T23:21:54.530Z,5.80
2018-04-01T23:24:21.991Z,5.80
2018-04-01T23:26:49.472Z,5.80
2018-04-01T23:29:16.956Z,5.90
2018-04-01T23:31:44.412Z,5.80
2018-04-01T23:34:12.200Z,5.90
2018-04-01T23:36:39.969Z,5.90
2018-04-01T23:39:09.601Z,5.80
2018-04-01T23:41:37.120Z,5.80
2018-04-01T23:44:04.614Z,5.70
2018-04-01T23:46:32.847Z,5.50
2018-04-01T23:49:00.314Z,5.50
2018-04-01T23:51:27.839Z,5.50
2018-04-01T23:53:55.543Z,5.30
2018-04-01T23:56:23.016Z,5.30
2018-04-01T23:58:50.506Z,5.30
